sensor_id;sensor_type;location;lat;lon;timestamp;pressure;altitude;pressure_sealevel;temperature;humidity
63663;BME280;49815;51.618;0.336;2023-01-30T00:01:42;101339.07;;;5.91;54.63
63663;BME280;49815;51.618;0.336;2023-01-30T00:04:07;101337.66;;;5.94;54.38
63663;BME280;49815;51.618;0.336;2023-01-30T00:06:33;101333.75;;;5.77;54.83
63663;BME280;49815;51.618;0.336;2023-01-30T00:08:58;101336.02;;;5.44;55.91
63663;BME280;49815;51.618;0.336;2023-01-30T00:11:24;101332.95;;;5.61;54.72
63663;BME280;49815;51.618;0.336;2023-01-30T00:13:50;101330.24;;;5.93;54.87
63663;BME280;49815;51.618;0.336;2023-01-30T00:16:15;101324.89;;;5.78;55.12
63663;BME280;49815;51.618;0.336;2023-01-30T00:18:40;101338.19;;;5.42;55.78
63663;BME280;49815;51.618;0.336;2023-01-30T00:21:08;101331.13;;;5.42;55.35
63663;BME280;49815;51.618;0.336;2023-01-30T00:23:32;101330.02;;;6.14;54.72
63663;BME280;49815;51.618;0.336;2023-01-30T00:25:57;101325.60;;;6.18;54.78
63663;BME280;49815;51.618;0.336;2023-01-30T00:28:22;101317.37;;;5.90;54.45
63663;BME280;49815;51.618;0.336;2023-01-30T00:30:48;101318.26;;;6.47;53.81
63663;BME280;49815;51.618;0.336;2023-01-30T00:33:13;101319.87;;;6.64;53.39
63663;BME280;49815;51.618;0.336;2023-01-30T00:35:42;101320.77;;;6.67;53.06
63663;BME280;49815;51.618;0.336;2023-01-30T00:38:06;101320.83;;;6.65;54.04
63663;BME280;49815;51.618;0.336;2023-01-30T00:40:30;101325.26;;;6.44;54.12
63663;BME280;49815;51.618;0.336;2023-01-30T00:42:55;101315.05;;;6.50;53.50
63663;BME280;49815;51.618;0.336;2023-01-30T00:45:21;101318.40;;;5.88;53.85
63663;BME280;49815;51.618;0.336;2023-01-30T00:47:47;101316.40;;;6.60;53.74
63663;BME280;49815;51.618;0.336;2023-01-30T00:50:12;101316.93;;;6.72;53.31
63663;BME280;49815;51.618;0.336;2023-01-30T00:52:37;101320.67;;;6.92;52.88
63663;BME280;49815;51.618;0.336;2023-01-30T00:55:04;101321.20;;;6.67;53.37
63663;BME280;49815;51.618;0.336;2023-01-30T00:57:28;101320.08;;;7.05;53.11
63663;BME280;49815;51.618;0.336;2023-01-30T00:59:54;101316.80;;;6.63;53.15
63663;BME280;49815;51.618;0.336;2023-01-30T01:02:19;101312.04;;;6.83;53.10
63663;BME280;49815;51.618;0.336;2023-01-30T01:04:44;101316.12;;;6.69;53.21
63663;BME280;49815;51.618;0.336;2023-01-30T01:07:10;101306.61;;;6.54;53.55
63663;BME280;49815;51.618;0.336;2023-01-30T01:09:35;101299.83;;;6.70;53.70
63663;BME280;49815;51.618;0.336;2023-01-30T01:12:00;101303.46;;;6.76;53.71
63663;BME280;49815;51.618;0.336;2023-01-30T01:14:26;101302.52;;;6.68;53.72
63663;BME280;49815;51.618;0.336;2023-01-30T01:16:51;101289.08;;;6.37;53.89
63663;BME280;49815;51.618;0.336;2023-01-30T01:19:17;101283.58;;;6.73;53.98
63663;BME280;49815;51.618;0.336;2023-01-30T01:21:42;101274.79;;;6.76;53.90
63663;BME280;49815;51.618;0.336;2023-01-30T01:24:11;101265.00;;;6.51;53.46
63663;BME280;49815;51.618;0.336;2023-01-30T01:26:34;101270.65;;;6.35;54.18
63663;BME280;49815;51.618;0.336;2023-01-30T01:28:59;101280.92;;;6.63;53.76
63663;BME280;49815;51.618;0.336;2023-01-30T01:31:25;101267.41;;;6.44;53.73
63663;BME280;49815;51.618;0.336;2023-01-30T01:33:51;101264.48;;;6.24;53.68
63663;BME280;49815;51.618;0.336;2023-01-30T01:36:15;101257.72;;;6.07;54.45
63663;BME280;49815;51.618;0.336;2023-01-30T01:38:41;101251.42;;;5.79;54.46
63663;BME280;49815;51.618;0.336;2023-01-30T01:41:06;101251.98;;;5.41;54.83
63663;BME280;49815;51.618;0.336;2023-01-30T01:43:33;101246.04;;;6.04;54.53
63663;BME280;49815;51.618;0.336;2023-01-30T01:46:00;101245.59;;;6.15;54.82
63663;BME280;49815;51.618;0.336;2023-01-30T01:48:27;101243.08;;;5.95;54.85
63663;BME280;49815;51.618;0.336;2023-01-30T01:50:52;101251.07;;;6.68;54.94
63663;BME280;49815;51.618;0.336;2023-01-30T01:53:16;101255.00;;;5.90;54.94
63663;BME280;49815;51.618;0.336;2023-01-30T01:55:40;101257.68;;;5.52;56.35
63663;BME280;49815;51.618;0.336;2023-01-30T01:58:08;101259.03;;;5.72;55.89
63663;BME280;49815;51.618;0.336;2023-01-30T02:00:31;101261.80;;;5.41;56.04
63663;BME280;49815;51.618;0.336;2023-01-30T02:02:57;101260.48;;;5.78;55.21
63663;BME280;49815;51.618;0.336;2023-01-30T02:05:23;101262.67;;;4.90;56.80
63663;BME280;49815;51.618;0.336;2023-01-30T02:07:51;101254.32;;;6.01;55.70
63663;BME280;49815;51.618;0.336;2023-01-30T02:10:16;101257.52;;;6.37;55.05
63663;BME280;49815;51.618;0.336;2023-01-30T02:12:38;101260.07;;;6.09;55.26
63663;BME280;49815;51.618;0.336;2023-01-30T02:15:03;101259.69;;;6.08;54.72
63663;BME280;49815;51.618;0.336;2023-01-30T02:17:28;101259.65;;;6.53;54.27
63663;BME280;49815;51.618;0.336;2023-01-30T02:19:56;101265.01;;;6.90;54.00
63663;BME280;49815;51.618;0.336;2023-01-30T02:22:32;101262.01;;;6.75;54.34
63663;BME280;49815;51.618;0.336;2023-01-30T02:27:17;101262.74;;;6.74;53.80
63663;BME280;49815;51.618;0.336;2023-01-30T02:29:45;101260.14;;;6.68;53.56
63663;BME280;49815;51.618;0.336;2023-01-30T02:32:04;101255.60;;;6.70;53.54
63663;BME280;49815;51.618;0.336;2023-01-30T02:34:36;101256.25;;;6.29;53.91
63663;BME280;49815;51.618;0.336;2023-01-30T02:37:00;101258.79;;;6.55;53.63
63663;BME280;49815;51.618;0.336;2023-01-30T02:39:24;101259.00;;;7.13;53.47
63663;BME280;49815;51.618;0.336;2023-01-30T02:41:50;101252.92;;;7.28;53.31
63663;BME280;49815;51.618;0.336;2023-01-30T02:44:12;101252.27;;;6.93;53.47
63663;BME280;49815;51.618;0.336;2023-01-30T02:46:41;101253.32;;;7.12;53.93
63663;BME280;49815;51.618;0.336;2023-01-30T02:49:05;101249.43;;;7.26;53.65
63663;BME280;49815;51.618;0.336;2023-01-30T02:51:27;101248.62;;;7.11;53.37
63663;BME280;49815;51.618;0.336;2023-01-30T02:53:50;101248.67;;;7.49;53.09
63663;BME280;49815;51.618;0.336;2023-01-30T02:56:15;101254.78;;;7.49;53.10
63663;BME280;49815;51.618;0.336;2023-01-30T02:58:43;101262.89;;;7.35;53.07
63663;BME280;49815;51.618;0.336;2023-01-30T03:01:19;101266.33;;;7.12;52.76
63663;BME280;49815;51.618;0.336;2023-01-30T03:03:40;101272.24;;;7.45;52.88
63663;BME280;49815;51.618;0.336;2023-01-30T03:06:11;101277.43;;;7.35;53.48
63663;BME280;49815;51.618;0.336;2023-01-30T03:08:30;101282.25;;;7.04;53.28
63663;BME280;49815;51.618;0.336;2023-01-30T03:10:53;101277.50;;;7.64;53.23
63663;BME280;49815;51.618;0.336;2023-01-30T03:13:19;101283.16;;;7.21;53.09
63663;BME280;49815;51.618;0.336;2023-01-30T03:15:43;101284.27;;;7.13;53.29
63663;BME280;49815;51.618;0.336;2023-01-30T03:18:06;101286.01;;;7.30;52.98
63663;BME280;49815;51.618;0.336;2023-01-30T03:20:35;101288.94;;;7.31;52.85
63663;BME280;49815;51.618;0.336;2023-01-30T03:22:56;101283.81;;;7.60;52.76
63663;BME280;49815;51.618;0.336;2023-01-30T03:25:24;101283.51;;;7.02;53.43
63663;BME280;49815;51.618;0.336;2023-01-30T03:27:48;101282.69;;;7.34;52.89
63663;BME280;49815;51.618;0.336;2023-01-30T03:30:13;101286.43;;;7.88;52.68
63663;BME280;49815;51.618;0.336;2023-01-30T03:32:38;101294.85;;;7.43;52.98
63663;BME280;49815;51.618;0.336;2023-01-30T03:35:04;101290.75;;;7.56;52.87
63663;BME280;49815;51.618;0.336;2023-01-30T03:37:29;101286.83;;;7.57;52.85
63663;BME280;49815;51.618;0.336;2023-01-30T03:39:55;101292.05;;;7.61;52.58
63663;BME280;49815;51.618;0.336;2023-01-30T03:42:21;101294.26;;;7.64;52.50
63663;BME280;49815;51.618;0.336;2023-01-30T03:44:46;101299.63;;;7.57;52.59
63663;BME280;49815;51.618;0.336;2023-01-30T03:47:11;101304.89;;;7.51;52.81
63663;BME280;49815;51.618;0.336;2023-01-30T03:49:37;101296.19;;;7.56;52.82
63663;BME280;49815;51.618;0.336;2023-01-30T03:52:02;101295.98;;;7.53;52.86
63663;BME280;49815;51.618;0.336;2023-01-30T03:54:27;101300.05;;;7.69;52.66
63663;BME280;49815;51.618;0.336;2023-01-30T03:56:53;101304.32;;;7.65;52.76
63663;BME280;49815;51.618;0.336;2023-01-30T03:59:18;101303.12;;;8.05;52.43
63663;BME280;49815;51.618;0.336;2023-01-30T04:01:44;101296.46;;;7.90;52.32
63663;BME280;49815;51.618;0.336;2023-01-30T04:04:09;101290.99;;;7.71;52.59
63663;BME280;49815;51.618;0.336;2023-01-30T04:06:35;101289.77;;;8.14;52.53
63663;BME280;49815;51.618;0.336;2023-01-30T04:09:00;101297.62;;;8.03;52.59
63663;BME280;49815;51.618;0.336;2023-01-30T04:11:26;101299.25;;;7.57;52.95
63663;BME280;49815;51.618;0.336;2023-01-30T04:13:52;101300.59;;;7.44;53.09
63663;BME280;49815;51.618;0.336;2023-01-30T04:16:19;101306.30;;;7.70;53.16
63663;BME280;49815;51.618;0.336;2023-01-30T04:18:43;101315.44;;;7.96;52.70
63663;BME280;49815;51.618;0.336;2023-01-30T04:21:08;101320.10;;;7.38;52.88
63663;BME280;49815;51.618;0.336;2023-01-30T04:23:33;101318.11;;;8.07;52.50
63663;BME280;49815;51.618;0.336;2023-01-30T04:26:00;101319.00;;;8.25;52.16
63663;BME280;49815;51.618;0.336;2023-01-30T04:28:25;101324.49;;;8.09;52.46
63663;BME280;49815;51.618;0.336;2023-01-30T04:30:51;101320.73;;;8.48;52.32
63663;BME280;49815;51.618;0.336;2023-01-30T04:33:16;101325.97;;;7.96;52.35
63663;BME280;49815;51.618;0.336;2023-01-30T04:35:50;101334.47;;;7.79;52.72
63663;BME280;49815;51.618;0.336;2023-01-30T04:38:07;101338.16;;;7.74;53.44
63663;BME280;49815;51.618;0.336;2023-01-30T04:40:33;101342.69;;;7.86;53.30
63663;BME280;49815;51.618;0.336;2023-01-30T04:42:58;101342.94;;;8.16;52.78
63663;BME280;49815;51.618;0.336;2023-01-30T04:45:23;101338.85;;;8.15;52.27
63663;BME280;49815;51.618;0.336;2023-01-30T04:47:49;101348.91;;;8.07;52.83
63663;BME280;49815;51.618;0.336;2023-01-30T04:50:15;101351.72;;;8.12;52.82
63663;BME280;49815;51.618;0.336;2023-01-30T04:52:40;101353.66;;;7.67;53.05
63663;BME280;49815;51.618;0.336;2023-01-30T04:55:06;101357.84;;;7.93;53.15
63663;BME280;49815;51.618;0.336;2023-01-30T04:57:31;101362.41;;;8.16;52.70
63663;BME280;49815;51.618;0.336;2023-01-30T04:59:56;101371.40;;;7.63;52.63
63663;BME280;49815;51.618;0.336;2023-01-30T05:02:22;101383.31;;;7.38;53.56
63663;BME280;49815;51.618;0.336;2023-01-30T05:04:48;101384.23;;;7.71;53.14
63663;BME280;49815;51.618;0.336;2023-01-30T05:07:13;101383.75;;;7.33;53.49
63663;BME280;49815;51.618;0.336;2023-01-30T05:09:39;101384.41;;;7.66;53.29
63663;BME280;49815;51.618;0.336;2023-01-30T05:12:04;101380.40;;;8.14;51.96
63663;BME280;49815;51.618;0.336;2023-01-30T05:14:29;101379.06;;;7.57;52.72
63663;BME280;49815;51.618;0.336;2023-01-30T05:16:55;101379.83;;;7.23;53.08
63663;BME280;49815;51.618;0.336;2023-01-30T05:19:21;101378.05;;;7.04;54.16
63663;BME280;49815;51.618;0.336;2023-01-30T05:21:46;101371.80;;;6.26;55.37
63663;BME280;49815;51.618;0.336;2023-01-30T05:24:11;101375.92;;;5.56;56.33
63663;BME280;49815;51.618;0.336;2023-01-30T05:26:37;101385.84;;;4.93;56.59
63663;BME280;49815;51.618;0.336;2023-01-30T05:29:02;101380.06;;;5.73;54.74
63663;BME280;49815;51.618;0.336;2023-01-30T05:31:28;101382.93;;;5.55;54.59
63663;BME280;49815;51.618;0.336;2023-01-30T05:33:53;101385.24;;;5.90;53.27
63663;BME280;49815;51.618;0.336;2023-01-30T05:36:21;101390.15;;;6.67;51.84
63663;BME280;49815;51.618;0.336;2023-01-30T05:38:45;101387.73;;;5.00;54.25
63663;BME280;49815;51.618;0.336;2023-01-30T05:41:11;101393.51;;;5.18;54.80
63663;BME280;49815;51.618;0.336;2023-01-30T05:43:36;101393.94;;;4.79;54.82
63663;BME280;49815;51.618;0.336;2023-01-30T05:46:03;101389.71;;;5.44;53.32
63663;BME280;49815;51.618;0.336;2023-01-30T05:48:27;101398.17;;;5.21;52.57
63663;BME280;49815;51.618;0.336;2023-01-30T05:50:52;101395.63;;;4.63;53.02
63663;BME280;49815;51.618;0.336;2023-01-30T05:53:17;101403.13;;;5.43;52.42
63663;BME280;49815;51.618;0.336;2023-01-30T05:55:43;101402.88;;;5.39;52.08
63663;BME280;49815;51.618;0.336;2023-01-30T05:58:08;101410.34;;;5.68;50.84
63663;BME280;49815;51.618;0.336;2023-01-30T06:00:34;101412.45;;;4.83;52.60
63663;BME280;49815;51.618;0.336;2023-01-30T06:03:00;101409.74;;;5.10;52.51
63663;BME280;49815;51.618;0.336;2023-01-30T06:05:25;101410.24;;;4.71;51.41
63663;BME280;49815;51.618;0.336;2023-01-30T06:07:51;101409.87;;;4.84;52.12
63663;BME280;49815;51.618;0.336;2023-01-30T06:10:16;101417.20;;;4.12;51.55
63663;BME280;49815;51.618;0.336;2023-01-30T06:12:41;101414.10;;;5.35;50.56
63663;BME280;49815;51.618;0.336;2023-01-30T06:15:08;101416.87;;;4.53;50.82
63663;BME280;49815;51.618;0.336;2023-01-30T06:17:32;101419.42;;;5.55;49.21
63663;BME280;49815;51.618;0.336;2023-01-30T06:19:58;101422.46;;;5.22;49.23
63663;BME280;49815;51.618;0.336;2023-01-30T06:22:23;101421.31;;;5.54;48.76
63663;BME280;49815;51.618;0.336;2023-01-30T06:24:49;101422.20;;;4.69;50.76
63663;BME280;49815;51.618;0.336;2023-01-30T06:27:15;101417.63;;;4.94;50.12
63663;BME280;49815;51.618;0.336;2023-01-30T06:29:40;101414.93;;;5.11;48.62
63663;BME280;49815;51.618;0.336;2023-01-30T06:32:06;101416.67;;;5.08;48.26
63663;BME280;49815;51.618;0.336;2023-01-30T06:34:31;101418.93;;;5.03;48.36
63663;BME280;49815;51.618;0.336;2023-01-30T06:36:57;101430.26;;;5.16;48.24
63663;BME280;49815;51.618;0.336;2023-01-30T06:39:22;101438.11;;;4.53;49.23
63663;BME280;49815;51.618;0.336;2023-01-30T06:41:48;101444.26;;;4.91;48.85
63663;BME280;49815;51.618;0.336;2023-01-30T06:44:14;101452.17;;;4.20;49.12
63663;BME280;49815;51.618;0.336;2023-01-30T06:46:39;101453.57;;;4.54;48.88
63663;BME280;49815;51.618;0.336;2023-01-30T06:49:06;101474.99;;;4.58;48.44
63663;BME280;49815;51.618;0.336;2023-01-30T06:51:30;101475.21;;;3.61;49.65
63663;BME280;49815;51.618;0.336;2023-01-30T06:53:56;101479.34;;;3.46;50.27
63663;BME280;49815;51.618;0.336;2023-01-30T06:56:22;101482.80;;;3.81;48.86
63663;BME280;49815;51.618;0.336;2023-01-30T06:58:47;101486.46;;;2.97;50.50
63663;BME280;49815;51.618;0.336;2023-01-30T07:01:13;101483.64;;;3.62;49.16
63663;BME280;49815;51.618;0.336;2023-01-30T07:03:38;101490.06;;;3.51;48.06
63663;BME280;49815;51.618;0.336;2023-01-30T07:06:04;101483.88;;;4.49;47.47
63663;BME280;49815;51.618;0.336;2023-01-30T07:08:29;101492.45;;;3.59;48.32
63663;BME280;49815;51.618;0.336;2023-01-30T07:10:55;101495.97;;;3.95;47.22
63663;BME280;49815;51.618;0.336;2023-01-30T07:13:21;101494.08;;;3.41;48.90
63663;BME280;49815;51.618;0.336;2023-01-30T07:15:46;101489.54;;;3.63;48.32
63663;BME280;49815;51.618;0.336;2023-01-30T07:18:12;101493.18;;;3.82;46.79
63663;BME280;49815;51.618;0.336;2023-01-30T07:20:37;101507.75;;;3.53;47.21
63663;BME280;49815;51.618;0.336;2023-01-30T07:23:03;101521.11;;;3.30;47.98
63663;BME280;49815;51.618;0.336;2023-01-30T07:25:29;101531.53;;;2.67;49.93
63663;BME280;49815;51.618;0.336;2023-01-30T07:27:55;101544.16;;;3.39;49.03
63663;BME280;49815;51.618;0.336;2023-01-30T07:30:20;101552.91;;;3.34;49.01
63663;BME280;49815;51.618;0.336;2023-01-30T07:32:49;101555.18;;;4.01;47.19
63663;BME280;49815;51.618;0.336;2023-01-30T07:35:10;101552.75;;;3.45;47.04
63663;BME280;49815;51.618;0.336;2023-01-30T07:37:36;101553.07;;;4.09;46.45
63663;BME280;49815;51.618;0.336;2023-01-30T07:40:02;101544.46;;;4.78;45.19
63663;BME280;49815;51.618;0.336;2023-01-30T07:42:27;101546.97;;;5.23;44.33
63663;BME280;49815;51.618;0.336;2023-01-30T07:44:53;101546.36;;;4.64;45.17
63663;BME280;49815;51.618;0.336;2023-01-30T07:47:19;101545.92;;;4.42;45.13
63663;BME280;49815;51.618;0.336;2023-01-30T07:49:44;101548.39;;;4.02;45.49
63663;BME280;49815;51.618;0.336;2023-01-30T07:52:10;101540.20;;;4.82;44.95
63663;BME280;49815;51.618;0.336;2023-01-30T07:54:36;101545.93;;;4.92;44.31
63663;BME280;49815;51.618;0.336;2023-01-30T07:57:01;101526.39;;;4.92;44.47
63663;BME280;49815;51.618;0.336;2023-01-30T07:59:27;101526.10;;;5.42;44.14
63663;BME280;49815;51.618;0.336;2023-01-30T08:01:52;101525.84;;;4.63;44.77
63663;BME280;49815;51.618;0.336;2023-01-30T08:04:17;101524.29;;;4.70;45.19
63663;BME280;49815;51.618;0.336;2023-01-30T08:06:43;101526.11;;;5.08;44.07
63663;BME280;49815;51.618;0.336;2023-01-30T08:09:09;101541.49;;;4.66;44.79
63663;BME280;49815;51.618;0.336;2023-01-30T08:11:34;101550.23;;;4.59;45.25
63663;BME280;49815;51.618;0.336;2023-01-30T08:14:00;101529.09;;;5.55;43.88
63663;BME280;49815;51.618;0.336;2023-01-30T08:16:25;101534.65;;;5.26;44.03
63663;BME280;49815;51.618;0.336;2023-01-30T08:18:51;101536.86;;;5.79;43.99
63663;BME280;49815;51.618;0.336;2023-01-30T08:21:16;101538.79;;;5.10;44.76
63663;BME280;49815;51.618;0.336;2023-01-30T08:23:42;101548.63;;;5.24;43.90
63663;BME280;49815;51.618;0.336;2023-01-30T08:26:07;101557.57;;;4.62;44.43
63663;BME280;49815;51.618;0.336;2023-01-30T08:28:33;101553.98;;;5.42;44.06
63663;BME280;49815;51.618;0.336;2023-01-30T08:30:59;101537.70;;;6.14;43.49
63663;BME280;49815;51.618;0.336;2023-01-30T08:33:24;101525.23;;;5.75;42.63
63663;BME280;49815;51.618;0.336;2023-01-30T08:35:50;101522.53;;;5.89;42.69
63663;BME280;49815;51.618;0.336;2023-01-30T08:38:16;101535.94;;;6.03;42.94
63663;BME280;49815;51.618;0.336;2023-01-30T08:40:41;101527.28;;;6.19;42.41
63663;BME280;49815;51.618;0.336;2023-01-30T08:43:07;101526.21;;;6.51;41.92
63663;BME280;49815;51.618;0.336;2023-01-30T08:45:32;101534.49;;;6.13;42.71
63663;BME280;49815;51.618;0.336;2023-01-30T08:47:58;101553.59;;;6.08;42.83
63663;BME280;49815;51.618;0.336;2023-01-30T08:50:23;101575.83;;;5.54;43.27
63663;BME280;49815;51.618;0.336;2023-01-30T08:52:49;101584.28;;;5.71;43.42
63663;BME280;49815;51.618;0.336;2023-01-30T08:55:14;101596.60;;;6.03;42.78
63663;BME280;49815;51.618;0.336;2023-01-30T08:57:40;101596.07;;;5.93;43.18
63663;BME280;49815;51.618;0.336;2023-01-30T09:00:07;101607.09;;;5.70;43.49
63663;BME280;49815;51.618;0.336;2023-01-30T09:02:31;101602.88;;;5.65;44.01
63663;BME280;49815;51.618;0.336;2023-01-30T09:04:56;101598.40;;;6.06;43.67
63663;BME280;49815;51.618;0.336;2023-01-30T09:07:22;101610.81;;;5.74;43.19
63663;BME280;49815;51.618;0.336;2023-01-30T09:09:48;101610.75;;;5.78;43.07
63663;BME280;49815;51.618;0.336;2023-01-30T09:12:13;101621.84;;;5.65;43.19
63663;BME280;49815;51.618;0.336;2023-01-30T09:14:38;101614.98;;;5.61;43.08
63663;BME280;49815;51.618;0.336;2023-01-30T09:17:03;101620.90;;;5.49;45.61
63663;BME280;49815;51.618;0.336;2023-01-30T09:19:29;101616.54;;;5.19;46.03
63663;BME280;49815;51.618;0.336;2023-01-30T09:21:55;101610.90;;;4.66;47.52
63663;BME280;49815;51.618;0.336;2023-01-30T09:24:21;101613.08;;;5.26;46.04
63663;BME280;49815;51.618;0.336;2023-01-30T09:26:45;101614.22;;;5.60;45.31
63663;BME280;49815;51.618;0.336;2023-01-30T09:29:12;101616.65;;;5.31;46.36
63663;BME280;49815;51.618;0.336;2023-01-30T09:31:37;101617.28;;;5.08;46.32
63663;BME280;49815;51.618;0.336;2023-01-30T09:34:02;101606.77;;;5.86;45.11
63663;BME280;49815;51.618;0.336;2023-01-30T09:36:27;101616.90;;;5.19;46.61
63663;BME280;49815;51.618;0.336;2023-01-30T09:38:53;101615.49;;;5.56;46.10
63663;BME280;49815;51.618;0.336;2023-01-30T09:41:31;101626.89;;;4.36;48.31
63663;BME280;49815;51.618;0.336;2023-01-30T09:43:54;101630.32;;;5.42;47.59
63663;BME280;49815;51.618;0.336;2023-01-30T09:46:17;101627.09;;;5.55;46.54
63663;BME280;49815;51.618;0.336;2023-01-30T09:48:40;101632.91;;;5.68;45.42
63663;BME280;49815;51.618;0.336;2023-01-30T09:53:33;101649.73;;;5.69;46.03
63663;BME280;49815;51.618;0.336;2023-01-30T09:55:53;101656.09;;;5.72;45.70
63663;BME280;49815;51.618;0.336;2023-01-30T09:58:19;101659.93;;;4.69;48.50
63663;BME280;49815;51.618;0.336;2023-01-30T10:00:42;101652.56;;;5.14;46.61
63663;BME280;49815;51.618;0.336;2023-01-30T10:03:10;101654.60;;;4.25;47.95
63663;BME280;49815;51.618;0.336;2023-01-30T10:05:39;101651.88;;;5.97;45.65
63663;BME280;49815;51.618;0.336;2023-01-30T10:08:10;101652.79;;;5.73;45.34
63663;BME280;49815;51.618;0.336;2023-01-30T10:10:35;101647.56;;;5.62;45.05
63663;BME280;49815;51.618;0.336;2023-01-30T10:12:57;101673.16;;;5.40;45.54
63663;BME280;49815;51.618;0.336;2023-01-30T10:15:28;101678.37;;;5.19;45.54
63663;BME280;49815;51.618;0.336;2023-01-30T10:17:52;101683.48;;;4.40;47.73
63663;BME280;49815;51.618;0.336;2023-01-30T10:20:21;101682.00;;;3.92;49.10
63663;BME280;49815;51.618;0.336;2023-01-30T10:22:39;101674.04;;;5.50;46.35
63663;BME280;49815;51.618;0.336;2023-01-30T10:25:06;101673.75;;;6.21;44.53
63663;BME280;49815;51.618;0.336;2023-01-30T10:27:25;101696.48;;;5.18;45.71
63663;BME280;49815;51.618;0.336;2023-01-30T10:29:52;101700.11;;;5.79;45.64
63663;BME280;49815;51.618;0.336;2023-01-30T10:32:17;101696.91;;;5.86;46.31
63663;BME280;49815;51.618;0.336;2023-01-30T10:34:42;101682.57;;;4.96;47.11
63663;BME280;49815;51.618;0.336;2023-01-30T10:37:08;101682.36;;;5.07;46.81
63663;BME280;49815;51.618;0.336;2023-01-30T10:39:37;101684.87;;;4.56;48.44
63663;BME280;49815;51.618;0.336;2023-01-30T10:42:03;101703.39;;;4.74;48.13
63663;BME280;49815;51.618;0.336;2023-01-30T10:44:22;101709.61;;;4.88;47.52
63663;BME280;49815;51.618;0.336;2023-01-30T10:47:03;101719.07;;;5.49;47.11
63663;BME280;49815;51.618;0.336;2023-01-30T10:49:15;101716.32;;;5.18;46.56
63663;BME280;49815;51.618;0.336;2023-01-30T10:51:46;101724.58;;;4.79;47.25
63663;BME280;49815;51.618;0.336;2023-01-30T10:54:09;101727.43;;;4.39;48.37
63663;BME280;49815;51.618;0.336;2023-01-30T10:56:36;101719.75;;;5.49;46.71
63663;BME280;49815;51.618;0.336;2023-01-30T10:59:02;101722.98;;;5.59;45.70
63663;BME280;49815;51.618;0.336;2023-01-30T11:01:24;101721.23;;;6.55;43.91
63663;BME280;49815;51.618;0.336;2023-01-30T11:03:49;101714.53;;;6.69;43.29
63663;BME280;49815;51.618;0.336;2023-01-30T11:06:12;101725.11;;;5.10;46.30
63663;BME280;49815;51.618;0.336;2023-01-30T11:08:37;101726.13;;;5.29;46.38
63663;BME280;49815;51.618;0.336;2023-01-30T11:13:29;101731.76;;;5.08;45.84
63663;BME280;49815;51.618;0.336;2023-01-30T11:15:55;101729.55;;;5.04;46.51
63663;BME280;49815;51.618;0.336;2023-01-30T11:18:19;101719.82;;;5.70;46.32
63663;BME280;49815;51.618;0.336;2023-01-30T11:20:50;101719.82;;;5.54;46.65
63663;BME280;49815;51.618;0.336;2023-01-30T11:23:22;101718.11;;;5.76;45.63
63663;BME280;49815;51.618;0.336;2023-01-30T11:28:02;101721.29;;;4.97;47.52
63663;BME280;49815;51.618;0.336;2023-01-30T11:30:27;101716.51;;;6.41;44.39
63663;BME280;49815;51.618;0.336;2023-01-30T11:33:05;101710.98;;;5.90;46.55
63663;BME280;49815;51.618;0.336;2023-01-30T11:35:25;101715.30;;;5.47;47.73
63663;BME280;49815;51.618;0.336;2023-01-30T11:37:43;101717.39;;;4.19;49.11
63663;BME280;49815;51.618;0.336;2023-01-30T11:40:18;101719.27;;;4.75;48.74
63663;BME280;49815;51.618;0.336;2023-01-30T11:42:33;101718.39;;;5.98;46.41
63663;BME280;49815;51.618;0.336;2023-01-30T11:45:00;101724.40;;;6.60;44.41
63663;BME280;49815;51.618;0.336;2023-01-30T11:47:26;101734.40;;;5.29;47.20
63663;BME280;49815;51.618;0.336;2023-01-30T11:49:52;101745.84;;;5.75;46.26
63663;BME280;49815;51.618;0.336;2023-01-30T11:52:17;101743.60;;;6.74;44.85
63663;BME280;49815;51.618;0.336;2023-01-30T11:54:42;101744.75;;;5.67;46.17
63663;BME280;49815;51.618;0.336;2023-01-30T11:57:10;101728.06;;;6.77;44.80
63663;BME280;49815;51.618;0.336;2023-01-30T11:59:34;101724.83;;;7.12;44.24
63663;BME280;49815;51.618;0.336;2023-01-30T12:02:03;101721.48;;;7.32;43.64
63663;BME280;49815;51.618;0.336;2023-01-30T12:04:23;101715.06;;;6.97;43.57
63663;BME280;49815;51.618;0.336;2023-01-30T12:09:27;101715.08;;;6.72;45.01
63663;BME280;49815;51.618;0.336;2023-01-30T12:11:41;101720.02;;;7.42;42.63
63663;BME280;49815;51.618;0.336;2023-01-30T12:14:15;101727.14;;;5.97;44.99
63663;BME280;49815;51.618;0.336;2023-01-30T12:16:40;101733.39;;;5.80;46.73
63663;BME280;49815;51.618;0.336;2023-01-30T12:19:00;101710.31;;;7.32;42.90
63663;BME280;49815;51.618;0.336;2023-01-30T12:21:30;101708.88;;;7.52;42.15
63663;BME280;49815;51.618;0.336;2023-01-30T12:23:54;101712.25;;;6.71;44.53
63663;BME280;49815;51.618;0.336;2023-01-30T12:26:14;101717.61;;;5.36;45.40
63663;BME280;49815;51.618;0.336;2023-01-30T12:28:42;101713.29;;;6.36;44.40
63663;BME280;49815;51.618;0.336;2023-01-30T12:31:08;101724.66;;;5.50;45.05
63663;BME280;49815;51.618;0.336;2023-01-30T12:33:31;101728.15;;;6.46;43.92
63663;BME280;49815;51.618;0.336;2023-01-30T12:36:03;101719.61;;;7.12;42.86
63663;BME280;49815;51.618;0.336;2023-01-30T12:38:29;101720.95;;;6.14;45.01
63663;BME280;49815;51.618;0.336;2023-01-30T12:40:50;101716.52;;;6.71;43.47
63663;BME280;49815;51.618;0.336;2023-01-30T12:43:22;101725.49;;;6.19;43.69
63663;BME280;49815;51.618;0.336;2023-01-30T12:45:39;101730.82;;;5.88;45.78
63663;BME280;49815;51.618;0.336;2023-01-30T12:50:34;101718.22;;;4.87;46.89
63663;BME280;49815;51.618;0.336;2023-01-30T12:53:03;101716.33;;;6.62;44.17
63663;BME280;49815;51.618;0.336;2023-01-30T12:55:25;101721.25;;;6.35;44.04
63663;BME280;49815;51.618;0.336;2023-01-30T12:57:45;101723.85;;;7.13;42.55
63663;BME280;49815;51.618;0.336;2023-01-30T13:00:23;101722.73;;;7.17;42.03
63663;BME280;49815;51.618;0.336;2023-01-30T13:02:44;101737.62;;;6.03;44.66
63663;BME280;49815;51.618;0.336;2023-01-30T13:05:14;101738.31;;;6.03;44.61